createdAt,value
2019-01-05T00:02:26.851Z,49.70
2019-01-05T00:05:20.770Z,51.43
2019-01-05T00:08:09.650Z,46.57
2019-01-05T00:10:57.920Z,49.03
2019-01-05T00:13:58.397Z,45.80
2019-01-05T00:16:49.714Z,51.40
2019-01-05T00:19:38.321Z,46.67
2019-01-05T00:22:38.636Z,44.13
2019-01-05T00:25:41.864Z,54.07
2019-01-05T00:28:27.269Z,49.13
2019-01-05T00:31:14.246Z,45.80
2019-01-05T00:33:53.450Z,45.00
2019-01-05T00:36:49.206Z,43.77
2019-01-05T00:39:43.109Z,46.23
2019-01-05T00:42:34.709Z,43.40
2019-01-05T00:45:22.152Z,51.33
2019-01-05T00:48:12.355Z,47.77
2019-01-05T00:51:01.356Z,46.30
2019-01-05T00:53:48.686Z,42.20
2019-01-05T00:56:36.925Z,45.17
2019-01-05T00:59:23.930Z,51.80
2019-01-05T01:02:28.030Z,49.30
2019-01-05T01:05:34.382Z,42.07
2019-01-05T01:08:40.531Z,45.57
2019-01-05T01:11:28.044Z,48.47
2019-01-05T01:14:14.675Z,42.37
2019-01-05T01:17:12.167Z,48.93
2019-01-05T01:20:06.085Z,44.27
2019-01-05T01:23:09.624Z,48.80
2019-01-05T01:25:56.780Z,46.17
2019-01-05T01:28:51.531Z,49.60
2019-01-05T01:31:52.137Z,49.80
2019-01-05T01:34:43.379Z,48.97
2019-01-05T01:37:34.381Z,49.63
2019-01-05T01:40:32.347Z,47.77
2019-01-05T01:43:19.950Z,50.87
2019-01-05T01:46:08.199Z,44.20
2019-01-05T01:48:56.398Z,45.60
2019-01-05T01:51:52.147Z,51.90
2019-01-05T01:54:39.209Z,46.67
2019-01-05T01:57:33.468Z,44.10
2019-01-05T02:00:40.858Z,43.83
2019-01-05T02:03:32.550Z,47.30
2019-01-05T02:06:40.303Z,48.00
2019-01-05T02:09:31.123Z,48.13
2019-01-05T02:12:21.862Z,47.63
2019-01-05T02:15:15.025Z,44.50
2019-01-05T02:18:43.040Z,50.53
2019-01-05T02:21:59.845Z,49.37
2019-01-05T02:25:22.071Z,49.60
2019-01-05T02:28:57.587Z,50.13
2019-01-05T02:32:03.497Z,48.50
2019-01-05T02:35:11.738Z,49.17
2019-01-05T02:38:40.972Z,51.77
2019-01-05T02:42:05.609Z,52.47
2019-01-05T02:45:46.156Z,43.27
2019-01-05T02:49:23.582Z,47.77
2019-01-05T02:52:56.246Z,49.23
2019-01-05T02:56:38.908Z,47.33
2019-01-05T03:00:06.559Z,49.97
2019-01-05T03:03:48.744Z,51.07
2019-01-05T03:06:51.206Z,58.23
2019-01-05T03:10:22.346Z,53.80
2019-01-05T03:14:01.442Z,57.07
2019-01-05T03:17:43.516Z,50.40
2019-01-05T03:21:22.524Z,53.97
2019-01-05T03:24:46.954Z,60.10
2019-01-05T03:28:17.135Z,50.60
2019-01-05T03:31:30.113Z,52.27
2019-01-05T03:35:14.571Z,53.33
2019-01-05T03:38:45.629Z,53.03
2019-01-05T03:42:11.443Z,48.87
2019-01-05T03:45:36.276Z,50.73
2019-01-05T03:49:15.689Z,48.97
2019-01-05T03:52:31.710Z,47.97
2019-01-05T03:55:56.487Z,45.73
2019-01-05T03:59:29.531Z,47.00
2019-01-05T04:03:09.681Z,53.20
2019-01-05T04:06:51.187Z,51.70
2019-01-05T04:10:25.005Z,51.00
2019-01-05T04:13:45.664Z,51.57
2019-01-05T04:17:29.110Z,55.63
2019-01-05T04:20:53.112Z,51.33
2019-01-05T04:24:06.375Z,56.87
2019-01-05T04:27:27.054Z,48.80
2019-01-05T04:30:54.304Z,48.30
2019-01-05T04:34:40.079Z,49.93
2019-01-05T04:38:08.316Z,51.03
2019-01-05T04:41:29.573Z,52.10
2019-01-05T04:44:50.148Z,51.63
2019-01-05T04:48:11.382Z,53.30
2019-01-05T04:51:26.559Z,50.07
2019-01-05T04:55:04.821Z,52.33
2019-01-05T04:58:43.531Z,55.13
2019-01-05T05:02:13.117Z,52.30
2019-01-05T05:05:30.067Z,55.90
2019-01-05T05:09:04.905Z,53.23
2019-01-05T05:12:24.994Z,56.33
2019-01-05T05:16:06.077Z,57.53
2019-01-05T05:19:48.103Z,55.30
2019-01-05T05:23:25.051Z,59.90
2019-01-05T05:26:54.786Z,50.40
2019-01-05T05:30:15.198Z,54.23
2019-01-05T05:33:48.387Z,56.57
2019-01-05T05:37:13.175Z,65.57
2019-01-05T05:40:36.056Z,57.17
2019-01-05T05:44:09.733Z,53.03
2019-01-05T05:47:48.414Z,65.73
2019-01-05T05:51:11.952Z,58.27
2019-01-05T05:54:34.270Z,57.00
2019-01-05T05:58:23.773Z,58.67
2019-01-05T06:01:46.855Z,59.40
2019-01-05T06:05:19.941Z,56.07
2019-01-05T06:08:57.989Z,66.50
2019-01-05T06:12:37.944Z,65.50
2019-01-05T06:16:14.781Z,58.93
2019-01-05T06:19:30.673Z,58.10
2019-01-05T06:23:07.481Z,61.43
2019-01-05T06:26:42.523Z,59.93
2019-01-05T06:30:15.498Z,54.73
2019-01-05T06:33:43.202Z,54.10
2019-01-05T06:37:23.239Z,56.83
2019-01-05T06:40:43.261Z,56.47
2019-01-05T06:44:18.090Z,56.57
2019-01-05T06:48:14.280Z,50.33
2019-01-05T06:52:01.958Z,57.63
2019-01-05T06:55:26.301Z,58.63
2019-01-05T06:58:59.033Z,47.30
2019-01-05T07:02:24.311Z,49.80
2019-01-05T07:06:00.396Z,61.00
2019-01-05T07:09:44.065Z,52.33
2019-01-05T07:13:18.684Z,55.10
2019-01-05T07:17:18.174Z,49.93
2019-01-05T07:20:57.504Z,49.47
2019-01-05T07:24:27.342Z,49.63
2019-01-05T07:27:49.962Z,51.57
2019-01-05T07:31:05.904Z,52.57
2019-01-05T07:34:37.378Z,47.00
2019-01-05T07:38:04.039Z,45.50
2019-01-05T07:41:24.919Z,51.97
2019-01-05T07:44:35.684Z,43.20
2019-01-05T07:47:59.923Z,42.77
2019-01-05T07:51:36.532Z,45.23
2019-01-05T07:55:20.021Z,44.60
2019-01-05T07:58:32.027Z,44.83
2019-01-05T08:01:49.162Z,40.73
2019-01-05T08:05:10.802Z,44.30
2019-01-05T08:08:27.836Z,38.73
2019-01-05T08:11:45.412Z,48.57
2019-01-05T08:15:08.749Z,40.13
2019-01-05T08:18:44.247Z,40.67
2019-01-05T08:22:20.827Z,39.23
2019-01-05T08:25:55.863Z,39.10
2019-01-05T08:29:22.587Z,47.03
2019-01-05T08:33:03.893Z,32.87
2019-01-05T08:36:35.049Z,40.80
2019-01-05T08:40:21.786Z,43.37
2019-01-05T08:43:40.432Z,32.13
2019-01-05T08:47:01.764Z,39.03
2019-01-05T08:50:39.072Z,37.93
2019-01-05T08:53:52.179Z,31.47
2019-01-05T08:57:30.447Z,32.57
2019-01-05T09:01:02.392Z,30.53
2019-01-05T09:04:40.475Z,32.90
2019-01-05T09:08:03.166Z,27.77
2019-01-05T09:11:35.184Z,25.63
2019-01-05T09:15:17.945Z,23.73
2019-01-05T09:18:41.698Z,31.87
2019-01-05T09:22:10.072Z,28.97
2019-01-05T09:25:39.129Z,28.00
2019-01-05T09:29:30.405Z,30.07
2019-01-05T09:32:55.657Z,29.63
2019-01-05T09:36:19.199Z,22.33
2019-01-05T09:39:43.841Z,23.50
2019-01-05T09:43:15.493Z,23.30
2019-01-05T09:46:48.528Z,23.07
2019-01-05T09:50:37.986Z,24.87
2019-01-05T09:54:11.451Z,21.30
2019-01-05T09:58:00.515Z,24.50
2019-01-05T10:01:34.630Z,22.30
2019-01-05T10:05:26.516Z,23.30
2019-01-05T10:08:53.426Z,26.43
2019-01-05T10:12:24.061Z,23.13
2019-01-05T10:15:46.455Z,22.70
2019-01-05T10:19:17.642Z,18.60
2019-01-05T10:22:54.539Z,20.20
2019-01-05T10:26:33.162Z,20.67
2019-01-05T10:30:14.055Z,19.10
2019-01-05T10:33:36.345Z,17.13
2019-01-05T10:37:00.774Z,18.00
2019-01-05T10:40:13.319Z,15.90
2019-01-05T10:43:53.055Z,18.80
2019-01-05T10:47:52.300Z,16.20
2019-01-05T10:51:17.797Z,16.20
2019-01-05T10:54:55.051Z,11.53
2019-01-05T10:58:29.240Z,16.17
2019-01-05T11:02:12.137Z,13.70
2019-01-05T11:05:26.585Z,12.97
2019-01-05T11:09:00.122Z,12.83
2019-01-05T11:12:23.052Z,15.30
2019-01-05T11:15:51.388Z,16.20
2019-01-05T11:19:26.666Z,12.00
2019-01-05T11:22:49.524Z,18.63
2019-01-05T11:26:10.589Z,14.10
2019-01-05T11:29:52.459Z,12.43
2019-01-05T11:33:17.659Z,15.07
2019-01-05T11:37:13.948Z,16.13
2019-01-05T11:40:57.399Z,19.20
2019-01-05T11:44:15.149Z,16.80
2019-01-05T11:47:39.642Z,13.20
2019-01-05T11:51:32.636Z,19.37
2019-01-05T11:55:13.328Z,17.10
2019-01-05T11:58:25.230Z,14.37
2019-01-05T12:02:10.999Z,15.87
2019-01-05T12:05:41.612Z,18.30
2019-01-05T12:09:11.200Z,23.77
2019-01-05T12:12:42.297Z,21.13
2019-01-05T12:16:18.607Z,20.03
2019-01-05T12:19:59.485Z,19.73
2019-01-05T12:23:52.300Z,19.83
2019-01-05T12:27:15.113Z,23.07
2019-01-05T12:30:47.432Z,23.17
2019-01-05T12:34:15.611Z,25.37
2019-01-05T12:37:45.700Z,22.83
2019-01-05T12:41:05.402Z,22.17
2019-01-05T12:44:32.271Z,23.97
2019-01-05T12:48:22.680Z,22.67
2019-01-05T12:51:53.739Z,23.13
2019-01-05T12:55:10.511Z,20.30
2019-01-05T12:58:27.343Z,18.53
2019-01-05T13:02:05.654Z,20.63
2019-01-05T13:05:37.148Z,23.80
2019-01-05T13:09:06.478Z,21.80
2019-01-05T13:12:47.599Z,17.63
2019-01-05T13:16:11.346Z,22.80
2019-01-05T13:19:58.228Z,20.13
2019-01-05T13:23:47.224Z,23.30
2019-01-05T13:27:27.356Z,19.43
2019-01-05T13:31:05.827Z,24.50
2019-01-05T13:34:52.370Z,18.20
2019-01-05T13:38:41.917Z,23.73
2019-01-05T13:41:55.435Z,22.77
2019-01-05T13:45:38.726Z,19.90
2019-01-05T13:49:03.061Z,20.67
2019-01-05T13:52:27.544Z,23.57
2019-01-05T13:55:19.367Z,18.47
2019-01-05T13:58:06.217Z,20.60
2019-01-05T14:00:53.084Z,19.50
2019-01-05T14:03:53.503Z,26.73
2019-01-05T14:06:40.233Z,23.20
2019-01-05T14:09:28.447Z,25.63
2019-01-05T14:12:15.732Z,20.87
2019-01-05T14:15:00.592Z,32.20
2019-01-05T14:18:07.340Z,25.70
2019-01-05T14:20:55.484Z,22.20
2019-01-05T14:23:42.233Z,22.90
2019-01-05T14:26:20.847Z,26.20
2019-01-05T14:29:09.408Z,31.13
2019-01-05T14:31:56.369Z,23.60
2019-01-05T14:34:40.995Z,33.43
2019-01-05T14:37:47.368Z,24.80
2019-01-05T14:40:39.130Z,28.77
2019-01-05T14:43:25.712Z,26.50
2019-01-05T14:46:14.126Z,25.13
2019-01-05T14:49:00.986Z,33.00
2019-01-05T14:51:49.053Z,26.40
2019-01-05T14:54:35.947Z,25.07
2019-01-05T14:57:24.021Z,25.83
2019-01-05T15:00:10.963Z,26.37
2019-01-05T15:03:04.254Z,30.00
2019-01-05T15:05:55.566Z,25.63
2019-01-05T15:08:42.686Z,29.80
2019-01-05T15:11:32.304Z,33.77
2019-01-05T15:14:18.947Z,29.20
2019-01-05T15:17:06.212Z,25.10
2019-01-05T15:19:55.773Z,26.23
2019-01-05T15:22:56.305Z,27.13
2019-01-05T15:25:47.641Z,24.57
2019-01-05T15:28:31.689Z,26.20
2019-01-05T15:31:19.721Z,28.60
2019-01-05T15:34:07.325Z,25.97
2019-01-05T15:36:58.593Z,27.00
2019-01-05T15:40:04.974Z,29.43
2019-01-05T15:42:55.038Z,33.37
2019-01-05T15:45:46.105Z,25.50
2019-01-05T15:48:39.694Z,26.40
2019-01-05T15:51:26.390Z,28.70
2019-01-05T15:54:17.052Z,27.33
2019-01-05T15:57:04.178Z,26.77
2019-01-05T16:00:07.810Z,24.10
2019-01-05T16:02:54.173Z,26.47
2019-01-05T16:05:54.637Z,24.57
2019-01-05T16:08:58.099Z,27.83
2019-01-05T16:12:13.225Z,28.90
2019-01-05T16:15:13.601Z,31.40
2019-01-05T16:18:00.425Z,30.50
2019-01-05T16:20:48.375Z,31.13
2019-01-05T16:23:35.275Z,34.60
2019-01-05T16:26:22.125Z,29.97
2019-01-05T16:29:22.362Z,34.80
2019-01-05T16:32:10.439Z,31.33
2019-01-05T16:35:14.539Z,33.13
2019-01-05T16:38:10.385Z,23.93
2019-01-05T16:41:04.687Z,27.77
2019-01-05T16:43:55.765Z,33.33
2019-01-05T16:46:59.142Z,31.13
2019-01-05T16:49:45.841Z,30.57
2019-01-05T16:52:35.064Z,28.93
2019-01-05T16:55:35.510Z,26.70
2019-01-05T16:58:22.338Z,30.40
2019-01-05T17:01:09.482Z,31.20
2019-01-05T17:03:56.429Z,30.10
2019-01-05T17:06:43.560Z,27.83
2019-01-05T17:09:40.986Z,25.90
2019-01-05T17:12:40.114Z,25.90
2019-01-05T17:15:26.958Z,27.67
2019-01-05T17:18:21.509Z,26.40
2019-01-05T17:21:08.392Z,27.30
2019-01-05T17:24:02.746Z,28.93
2019-01-05T17:26:56.796Z,28.67
2019-01-05T17:30:00.048Z,28.50
2019-01-05T17:32:47.477Z,31.63
2019-01-05T17:35:35.831Z,30.77
2019-01-05T17:38:39.224Z,27.40
2019-01-05T17:41:33.276Z,32.30
2019-01-05T17:44:20.455Z,30.90
2019-01-05T17:47:17.678Z,26.57
2019-01-05T17:50:09.766Z,29.90
2019-01-05T17:53:03.731Z,35.20
2019-01-05T17:55:52.383Z,35.37
2019-01-05T17:58:49.472Z,29.87
2019-01-05T18:01:36.141Z,32.63
2019-01-05T18:04:22.935Z,32.03
2019-01-05T18:07:23.223Z,35.37
2019-01-05T18:10:09.895Z,37.40
2019-01-05T18:13:00.572Z,32.73
2019-01-05T18:16:07.284Z,30.70
2019-01-05T18:19:04.464Z,34.37
2019-01-05T18:21:58.757Z,35.33
2019-01-05T18:24:53.400Z,35.50
2019-01-05T18:27:56.885Z,29.03
2019-01-05T18:30:55.519Z,34.87
2019-01-05T18:33:42.629Z,28.50
2019-01-05T18:36:31.265Z,27.13
2019-01-05T18:39:19.522Z,26.63
2019-01-05T18:42:03.407Z,29.10
2019-01-05T18:44:56.140Z,26.93
2019-01-05T18:47:43.038Z,31.00
2019-01-05T18:50:40.302Z,30.00
2019-01-05T18:53:26.981Z,29.20
2019-01-05T18:56:13.724Z,33.63
2019-01-05T18:59:02.195Z,32.40
2019-01-05T19:01:59.640Z,25.30
2019-01-05T19:04:46.652Z,27.93
2019-01-05T19:07:36.167Z,30.67
2019-01-05T19:10:26.178Z,26.73
2019-01-05T19:13:14.432Z,27.10
2019-01-05T19:16:13.964Z,31.60
2019-01-05T19:19:01.181Z,32.30
2019-01-05T19:21:49.393Z,30.03
2019-01-05T19:24:40.495Z,33.53
2019-01-05T19:27:25.312Z,31.53
2019-01-05T19:30:06.849Z,31.70
2019-01-05T19:33:10.354Z,35.03
2019-01-05T19:35:58.476Z,32.07
2019-01-05T19:38:48.511Z,29.50
2019-01-05T19:41:33.985Z,33.37
2019-01-05T19:44:20.655Z,34.80
2019-01-05T19:47:08.059Z,30.10
2019-01-05T19:49:48.890Z,32.63
2019-01-05T19:52:36.220Z,34.20
2019-01-05T19:55:23.204Z,33.33
2019-01-05T19:58:10.121Z,37.77
2019-01-05T20:00:51.855Z,34.57
2019-01-05T20:03:38.751Z,26.47
2019-01-05T20:06:25.263Z,30.93
2019-01-05T20:09:27.674Z,32.87
2019-01-05T20:12:28.071Z,31.50
2019-01-05T20:15:16.256Z,32.33
2019-01-05T20:18:09.132Z,36.03
2019-01-05T20:20:57.579Z,34.83
2019-01-05T20:23:45.872Z,38.77
2019-01-05T20:26:32.542Z,32.53
2019-01-05T20:29:21.625Z,32.23
2019-01-05T20:32:10.049Z,36.23
2019-01-05T20:35:13.896Z,39.00
2019-01-05T20:37:54.803Z,36.03
2019-01-05T20:40:42.928Z,36.17
2019-01-05T20:43:30.060Z,34.27
2019-01-05T20:46:21.048Z,38.37
2019-01-05T20:49:08.172Z,38.90
2019-01-05T20:51:59.187Z,35.63
2019-01-05T20:54:54.517Z,34.20
2019-01-05T20:57:41.668Z,28.47
2019-01-05T21:00:39.221Z,31.90
2019-01-05T21:03:30.406Z,32.50
2019-01-05T21:06:17.749Z,33.47
2019-01-05T21:09:05.808Z,32.10
2019-01-05T21:11:52.979Z,27.23
2019-01-05T21:14:47.187Z,35.50
2019-01-05T21:17:34.328Z,30.10
2019-01-05T21:20:28.864Z,33.37
2019-01-05T21:23:15.911Z,28.30
2019-01-05T21:26:10.313Z,34.63
2019-01-05T21:28:59.318Z,32.23
2019-01-05T21:32:02.686Z,30.03
2019-01-05T21:34:53.822Z,27.73
2019-01-05T21:37:41.048Z,34.70
2019-01-05T21:40:28.265Z,30.03
2019-01-05T21:43:16.507Z,30.60
2019-01-05T21:46:03.257Z,34.73
2019-01-05T21:48:51.346Z,36.67
2019-01-05T21:51:38.446Z,29.57
2019-01-05T21:54:25.134Z,26.93
2019-01-05T21:57:16.057Z,29.80
2019-01-05T22:00:10.557Z,26.43
2019-01-05T22:02:51.226Z,30.40
2019-01-05T22:05:54.609Z,29.27
2019-01-05T22:08:40.432Z,29.90
2019-01-05T22:11:28.806Z,29.17
2019-01-05T22:14:17.295Z,30.30
2019-01-05T22:17:08.499Z,29.33
2019-01-05T22:20:02.767Z,28.20
2019-01-05T22:23:00.703Z,27.53
2019-01-05T22:26:02.408Z,34.83
2019-01-05T22:28:44.174Z,30.43
2019-01-05T22:31:35.229Z,26.43
2019-01-05T22:34:22.304Z,29.87
2019-01-05T22:37:12.314Z,34.50
2019-01-05T22:40:03.715Z,30.80
2019-01-05T22:42:53.599Z,29.03
2019-01-05T22:45:50.986Z,35.60
2019-01-05T22:48:54.504Z,31.60
2019-01-05T22:51:41.375Z,28.67
2019-01-05T22:54:47.400Z,30.97
2019-01-05T22:57:47.216Z,29.00
2019-01-05T23:00:33.987Z,32.40
2019-01-05T23:03:27.632Z,30.60
2019-01-05T23:06:34.469Z,29.97
2019-01-05T23:09:25.921Z,33.10
2019-01-05T23:12:14.372Z,35.27
2019-01-05T23:14:59.975Z,26.23
2019-01-05T23:17:48.328Z,29.70
2019-01-05T23:20:55.158Z,29.40
2019-01-05T23:23:55.351Z,27.87
2019-01-05T23:26:58.549Z,26.93
2019-01-05T23:29:45.652Z,25.10
2019-01-05T23:32:32.421Z,25.53
2019-01-05T23:35:20.768Z,29.50
2019-01-05T23:38:07.770Z,28.53
2019-01-05T23:40:56.187Z,27.17
2019-01-05T23:43:43.097Z,24.57
2019-01-05T23:46:34.216Z,24.40
2019-01-05T23:49:31.247Z,28.70
2019-01-05T23:52:14.293Z,27.77
2019-01-05T23:55:05.411Z,28.70
2019-01-05T23:57:50.599Z,25.00
